createdAt,value
2023-10-09T00:00:39.152Z,11.56
2023-10-09T00:03:29.365Z,11.54
2023-10-09T00:05:58.458Z,11.58
2023-10-09T00:08:38.482Z,11.50
2023-10-09T00:11:19.591Z,11.60
2023-10-09T00:13:58.768Z,11.70
2023-10-09T00:16:36.457Z,11.80
2023-10-09T00:19:18.035Z,11.90
2023-10-09T00:21:47.338Z,12.00
2023-10-09T00:24:25.656Z,12.10
2023-10-09T00:27:12.967Z,12.00
2023-10-09T00:29:47.810Z,12.06
2023-10-09T00:32:24.048Z,12.10
2023-10-09T00:34:52.820Z,11.98
2023-10-09T00:37:24.641Z,12.06
2023-10-09T00:39:59.599Z,12.20
2023-10-09T00:42:31.489Z,12.00
2023-10-09T00:45:11.713Z,12.10
2023-10-09T00:47:42.410Z,12.12
2023-10-09T00:50:11.647Z,12.26
2023-10-09T00:52:44.125Z,12.20
2023-10-09T00:55:37.026Z,12.24
2023-10-09T00:58:13.261Z,12.20
2023-10-09T01:00:45.692Z,12.20
2023-10-09T01:03:19.381Z,12.10
2023-10-09T01:06:17.445Z,12.26
2023-10-09T01:08:49.463Z,12.26
2023-10-09T01:11:30.772Z,12.22
2023-10-09T01:14:13.449Z,12.30
2023-10-09T01:16:45.312Z,12.32
2023-10-09T01:19:25.702Z,12.30
2023-10-09T01:21:54.389Z,12.28
2023-10-09T01:24:24.121Z,12.40
2023-10-09T01:26:55.583Z,12.30
2023-10-09T01:29:28.663Z,12.20
2023-10-09T01:32:01.753Z,12.30
2023-10-09T01:34:44.897Z,12.20
2023-10-09T01:37:24.393Z,12.20
2023-10-09T01:39:59.446Z,12.20
2023-10-09T01:42:46.074Z,12.20
2023-10-09T01:45:35.335Z,12.02
2023-10-09T01:48:06.584Z,11.94
2023-10-09T01:50:36.873Z,11.90
2023-10-09T01:53:07.195Z,11.84
2023-10-09T01:55:36.826Z,11.80
2023-10-09T01:58:25.948Z,11.60
2023-10-09T02:00:57.796Z,11.70
2023-10-09T02:03:28.104Z,11.64
2023-10-09T02:06:04.549Z,11.60
2023-10-09T02:08:36.717Z,11.60
2023-10-09T02:11:04.808Z,11.50
2023-10-09T02:13:36.049Z,11.40
2023-10-09T02:16:15.900Z,11.30
2023-10-09T02:18:54.591Z,11.12
2023-10-09T02:21:50.203Z,11.00
2023-10-09T02:24:38.136Z,10.90
2023-10-09T02:27:09.390Z,10.70
2023-10-09T02:29:39.685Z,10.60
2023-10-09T02:32:18.038Z,10.50
2023-10-09T02:34:47.800Z,10.40
2023-10-09T02:37:15.896Z,10.22
2023-10-09T02:39:49.326Z,10.16
2023-10-09T02:42:29.652Z,10.00
2023-10-09T02:45:00.338Z,9.90
2023-10-09T02:47:38.843Z,9.80
2023-10-09T02:50:20.542Z,9.70
2023-10-09T02:52:53.809Z,9.60
2023-10-09T02:55:26.992Z,9.48
2023-10-09T02:58:11.579Z,9.30
2023-10-09T03:00:40.204Z,9.00
2023-10-09T03:03:08.840Z,9.00
2023-10-09T03:05:43.832Z,8.76
2023-10-09T03:08:13.593Z,8.70
2023-10-09T03:10:41.615Z,8.70
2023-10-09T03:13:09.604Z,8.70
2023-10-09T03:15:40.068Z,8.60
2023-10-09T03:18:08.349Z,8.60
2023-10-09T03:20:38.505Z,8.60
2023-10-09T03:23:09.135Z,8.60
2023-10-09T03:25:39.017Z,8.60
2023-10-09T03:28:08.039Z,8.48
2023-10-09T03:30:36.226Z,8.48
2023-10-09T03:33:05.515Z,8.48
2023-10-09T03:35:36.701Z,8.40
2023-10-09T03:38:13.856Z,8.42
2023-10-09T03:40:43.809Z,8.40
2023-10-09T03:43:12.668Z,8.32
2023-10-09T03:45:50.728Z,8.30
2023-10-09T03:48:23.994Z,8.30
2023-10-09T03:51:09.163Z,8.30
2023-10-09T03:53:37.933Z,8.30
2023-10-09T03:56:12.959Z,8.30
2023-10-09T03:58:44.169Z,8.30
2023-10-09T04:01:29.953Z,8.30
2023-10-09T04:04:03.089Z,8.20
2023-10-09T04:06:35.723Z,8.20
2023-10-09T04:09:20.349Z,8.20
2023-10-09T04:12:09.661Z,8.24
2023-10-09T04:14:50.024Z,8.30
2023-10-09T04:17:23.971Z,8.30
2023-10-09T04:20:10.580Z,8.30
2023-10-09T04:23:00.422Z,8.30
2023-10-09T04:25:30.851Z,8.30
2023-10-09T04:28:10.421Z,8.32
2023-10-09T04:30:45.465Z,8.40
2023-10-09T04:33:30.405Z,8.40
2023-10-09T04:36:18.153Z,8.40
2023-10-09T04:39:10.491Z,8.40
2023-10-09T04:41:44.626Z,8.50
2023-10-09T04:44:24.226Z,8.50
2023-10-09T04:47:14.436Z,8.60
2023-10-09T04:49:49.157Z,8.70
2023-10-09T04:52:41.429Z,9.00
2023-10-09T04:55:12.707Z,9.42
2023-10-09T04:57:45.316Z,9.76
2023-10-09T05:00:28.707Z,9.90
2023-10-09T05:03:00.837Z,9.90
2023-10-09T05:05:42.972Z,10.10
2023-10-09T05:08:28.555Z,10.28
2023-10-09T05:11:04.271Z,10.56
2023-10-09T05:13:42.004Z,10.82
2023-10-09T05:16:17.050Z,11.06
2023-10-09T05:19:00.810Z,11.44
2023-10-09T05:21:43.073Z,11.88
2023-10-09T05:24:14.923Z,12.28
2023-10-09T05:26:49.725Z,12.24
2023-10-09T05:29:35.686Z,12.04
2023-10-09T05:32:13.637Z,12.40
2023-10-09T05:35:01.009Z,12.40
2023-10-09T05:37:35.151Z,12.62
2023-10-09T05:40:18.215Z,12.56
2023-10-09T05:42:59.112Z,12.38
2023-10-09T05:45:51.936Z,12.52
2023-10-09T05:48:20.356Z,12.80
2023-10-09T05:51:06.929Z,13.22
2023-10-09T05:53:46.995Z,13.28
2023-10-09T05:56:44.250Z,13.36
2023-10-09T05:59:30.924Z,13.84
2023-10-09T06:02:17.148Z,13.70
2023-10-09T06:04:55.671Z,13.50
2023-10-09T06:07:47.139Z,13.78
2023-10-09T06:10:34.383Z,13.68
2023-10-09T06:13:05.307Z,13.64
2023-10-09T06:15:47.467Z,13.94
2023-10-09T06:18:29.677Z,14.64
2023-10-09T06:21:06.625Z,14.72
2023-10-09T06:23:53.258Z,14.54
2023-10-09T06:26:27.707Z,14.16
2023-10-09T06:29:15.666Z,14.50
2023-10-09T06:31:59.385Z,14.30
2023-10-09T06:34:45.951Z,14.26
2023-10-09T06:37:26.344Z,14.36
2023-10-09T06:39:57.095Z,14.70
2023-10-09T06:42:45.160Z,14.66
2023-10-09T06:45:14.945Z,14.94
2023-10-09T06:47:56.836Z,15.20
2023-10-09T06:50:26.146Z,15.20
2023-10-09T06:53:12.818Z,15.18
2023-10-09T06:55:50.413Z,14.94
2023-10-09T06:58:29.427Z,15.24
2023-10-09T07:01:00.258Z,15.36
2023-10-09T07:03:34.438Z,15.82
2023-10-09T07:06:30.597Z,16.22
2023-10-09T07:09:07.652Z,16.52
2023-10-09T07:11:41.244Z,16.12
2023-10-09T07:14:30.045Z,16.02
2023-10-09T07:17:19.059Z,16.40
2023-10-09T07:19:47.310Z,16.58
2023-10-09T07:22:22.249Z,16.42
2023-10-09T07:25:16.473Z,16.56
2023-10-09T07:27:44.672Z,16.54
2023-10-09T07:30:32.606Z,16.64
2023-10-09T07:33:14.207Z,16.84
2023-10-09T07:35:43.723Z,16.90
2023-10-09T07:38:20.858Z,17.42
2023-10-09T07:41:08.332Z,17.84
2023-10-09T07:43:44.666Z,17.82
2023-10-09T07:46:34.317Z,17.94
2023-10-09T07:49:10.277Z,17.80
2023-10-09T07:51:40.105Z,18.08
2023-10-09T07:54:11.117Z,18.90
2023-10-09T07:56:44.799Z,19.20
2023-10-09T07:59:14.276Z,19.46
2023-10-09T08:01:53.642Z,18.52
2023-10-09T08:04:39.577Z,18.98
2023-10-09T08:08:06.612Z,18.60
2023-10-09T08:10:16.736Z,18.94
2023-10-09T08:12:45.515Z,19.58
2023-10-09T08:15:20.118Z,19.64
2023-10-09T08:18:11.492Z,20.26
2023-10-09T08:20:58.811Z,21.02
2023-10-09T08:23:49.551Z,21.28
2023-10-09T08:26:30.477Z,20.86
2023-10-09T08:29:24.516Z,21.00
2023-10-09T08:31:58.359Z,21.02
2023-10-09T08:36:58.294Z,22.50
2023-10-09T08:39:26.840Z,22.26
2023-10-09T08:42:03.932Z,22.34
2023-10-09T08:44:36.032Z,21.88
2023-10-09T08:47:05.683Z,22.34
2023-10-09T08:49:37.036Z,21.90
2023-10-09T08:52:05.673Z,21.40
2023-10-09T08:54:34.874Z,21.74
2023-10-09T08:57:03.155Z,21.64
2023-10-09T08:59:31.489Z,22.60
2023-10-09T09:02:01.098Z,22.92
2023-10-09T09:04:41.921Z,23.80
2023-10-09T09:07:33.378Z,24.04
2023-10-09T09:10:18.965Z,24.22
2023-10-09T09:12:48.058Z,23.34
2023-10-09T09:15:28.194Z,22.04
2023-10-09T09:18:07.753Z,22.18
2023-10-09T09:20:38.153Z,22.08
2023-10-09T09:23:13.562Z,21.54
2023-10-09T09:26:14.533Z,21.10
2023-10-09T09:28:56.300Z,21.80
2023-10-09T09:31:24.621Z,22.28
2023-10-09T09:34:05.538Z,22.62
2023-10-09T09:36:35.447Z,21.72
2023-10-09T09:39:06.125Z,20.86
2023-10-09T09:41:35.465Z,21.00
2023-10-09T09:44:05.343Z,21.66
2023-10-09T09:46:35.510Z,22.60
2023-10-09T09:49:17.929Z,22.58
2023-10-09T09:51:48.148Z,22.56
2023-10-09T09:54:16.892Z,23.12
2023-10-09T09:56:52.167Z,23.82
2023-10-09T09:59:28.716Z,24.22
2023-10-09T10:01:59.270Z,24.26
2023-10-09T10:04:31.200Z,24.70
2023-10-09T10:07:05.768Z,23.94
2023-10-09T10:09:43.047Z,23.48
2023-10-09T10:12:12.754Z,23.44
2023-10-09T10:15:16.154Z,23.90
2023-10-09T10:18:08.404Z,23.98
2023-10-09T10:21:17.680Z,24.32
2023-10-09T10:23:48.810Z,23.74
2023-10-09T10:26:27.060Z,22.54
2023-10-09T10:29:24.377Z,22.32
2023-10-09T10:32:02.557Z,22.50
2023-10-09T10:34:58.865Z,22.98
2023-10-09T10:37:56.610Z,21.66
2023-10-09T10:40:47.453Z,22.28
2023-10-09T10:43:49.000Z,23.02
2023-10-09T10:46:39.019Z,24.14
2023-10-09T10:49:15.244Z,24.16
2023-10-09T10:51:50.350Z,23.86
2023-10-09T10:54:43.646Z,23.38
2023-10-09T10:57:38.381Z,23.70
2023-10-09T11:00:35.287Z,22.58
2023-10-09T11:03:18.320Z,22.06
2023-10-09T11:05:52.359Z,22.04
2023-10-09T11:08:32.361Z,22.46
2023-10-09T11:11:17.212Z,22.54
2023-10-09T11:14:00.425Z,22.86
2023-10-09T11:16:43.730Z,23.84
2023-10-09T11:19:29.395Z,23.16
2023-10-09T11:22:07.342Z,22.16
2023-10-09T11:24:36.752Z,22.14
2023-10-09T11:27:07.359Z,22.74
2023-10-09T11:29:45.770Z,23.74
2023-10-09T11:32:24.690Z,24.78
2023-10-09T11:35:12.616Z,25.44
2023-10-09T11:37:43.873Z,25.34
2023-10-09T11:41:04.316Z,24.20
2023-10-09T11:43:52.658Z,24.86
2023-10-09T11:46:42.126Z,24.16
2023-10-09T11:49:27.341Z,23.54
2023-10-09T11:52:15.651Z,24.60
2023-10-09T11:54:45.593Z,24.50
2023-10-09T11:57:13.582Z,23.72
2023-10-09T11:59:42.836Z,23.14
2023-10-09T12:02:14.780Z,22.72
2023-10-09T12:04:46.456Z,22.64
2023-10-09T12:07:14.918Z,22.22
2023-10-09T12:09:43.012Z,23.60
2023-10-09T12:12:10.959Z,24.30
2023-10-09T12:14:38.994Z,24.00
2023-10-09T12:17:10.777Z,24.46
2023-10-09T12:19:40.088Z,24.32
2023-10-09T12:22:17.536Z,24.20
2023-10-09T12:24:46.958Z,24.90
2023-10-09T12:27:15.130Z,25.22
2023-10-09T12:29:48.948Z,24.66
2023-10-09T12:32:22.269Z,24.24
2023-10-09T12:34:52.325Z,24.00
2023-10-09T12:37:22.125Z,24.76
2023-10-09T12:39:51.447Z,24.86
2023-10-09T12:42:19.417Z,24.68
2023-10-09T12:44:47.330Z,25.80
2023-10-09T12:47:16.707Z,25.48
2023-10-09T12:49:46.058Z,24.32
2023-10-09T12:52:17.647Z,24.28
2023-10-09T12:54:49.222Z,24.62
2023-10-09T12:57:17.136Z,24.40
2023-10-09T12:59:46.860Z,24.30
2023-10-09T13:02:29.799Z,24.70
2023-10-09T13:05:01.223Z,25.10
2023-10-09T13:07:29.586Z,23.76
2023-10-09T13:10:10.244Z,23.30
2023-10-09T13:12:42.704Z,23.30
2023-10-09T13:15:11.688Z,22.52
2023-10-09T13:17:40.126Z,21.72
2023-10-09T13:20:15.133Z,21.10
2023-10-09T13:22:44.215Z,21.18
2023-10-09T13:25:31.304Z,20.96
2023-10-09T13:28:05.117Z,20.94
2023-10-09T13:30:41.332Z,21.10
2023-10-09T13:33:11.314Z,21.42
2023-10-09T13:35:39.371Z,21.78
2023-10-09T13:38:11.276Z,21.08
2023-10-09T13:40:39.488Z,21.48
2023-10-09T13:43:07.691Z,21.06
2023-10-09T13:45:40.280Z,20.86
2023-10-09T13:48:12.892Z,20.88
2023-10-09T13:50:44.001Z,20.60
2023-10-09T13:53:13.948Z,20.90
2023-10-09T13:55:44.913Z,21.00
2023-10-09T13:58:15.381Z,21.18
2023-10-09T14:00:44.214Z,20.70
2023-10-09T14:03:14.183Z,19.66
2023-10-09T14:05:59.514Z,19.98
2023-10-09T14:08:30.139Z,20.10
2023-10-09T14:10:58.553Z,19.82
2023-10-09T14:13:30.327Z,19.82
2023-10-09T14:16:01.440Z,19.78
2023-10-09T14:18:31.485Z,19.24
2023-10-09T14:21:11.296Z,19.14
2023-10-09T14:23:40.021Z,19.12
2023-10-09T14:26:08.193Z,19.40
2023-10-09T14:28:36.575Z,19.28
2023-10-09T14:31:06.672Z,19.60
2023-10-09T14:33:37.965Z,19.06
2023-10-09T14:36:07.234Z,19.20
2023-10-09T14:38:39.544Z,19.20
2023-10-09T14:41:13.111Z,19.20
2023-10-09T14:43:42.553Z,19.18
2023-10-09T14:46:15.291Z,19.26
2023-10-09T14:48:47.317Z,19.00
2023-10-09T14:51:15.935Z,19.16
2023-10-09T14:53:45.480Z,19.10
2023-10-09T14:56:17.416Z,19.12
2023-10-09T14:58:48.421Z,19.10
2023-10-09T15:01:20.771Z,19.04
2023-10-09T15:03:50.494Z,19.00
2023-10-09T15:06:19.673Z,19.16
2023-10-09T15:08:48.097Z,19.20
2023-10-09T15:11:16.234Z,19.30
2023-10-09T15:13:44.382Z,19.20
2023-10-09T15:16:12.747Z,19.24
2023-10-09T15:18:40.968Z,19.30
2023-10-09T15:21:09.958Z,19.12
2023-10-09T15:23:38.084Z,19.10
2023-10-09T15:26:08.334Z,19.10
2023-10-09T15:28:37.016Z,19.00
2023-10-09T15:31:12.362Z,18.92
2023-10-09T15:33:42.588Z,18.78
2023-10-09T15:36:13.148Z,18.40
2023-10-09T15:38:41.660Z,18.20
2023-10-09T15:41:09.882Z,18.24
2023-10-09T15:43:38.464Z,18.08
2023-10-09T15:46:18.840Z,18.00
2023-10-09T15:48:52.065Z,17.90
2023-10-09T15:51:21.170Z,17.80
2023-10-09T15:53:49.482Z,17.70
2023-10-09T15:56:19.138Z,17.50
2023-10-09T15:58:47.651Z,17.40
2023-10-09T16:01:19.802Z,17.20
2023-10-09T16:03:49.309Z,17.08
2023-10-09T16:06:19.614Z,16.90
2023-10-09T16:08:51.403Z,16.74
2023-10-09T16:11:26.625Z,16.52
2023-10-09T16:13:55.295Z,16.30
2023-10-09T16:16:30.624Z,16.14
2023-10-09T16:19:01.639Z,16.10
2023-10-09T16:21:30.771Z,15.90
2023-10-09T16:24:00.421Z,15.90
2023-10-09T16:26:29.865Z,15.80
2023-10-09T16:29:01.095Z,15.56
2023-10-09T16:31:32.573Z,15.40
2023-10-09T16:34:00.945Z,15.38
2023-10-09T16:36:29.355Z,15.30
2023-10-09T16:39:00.162Z,15.20
2023-10-09T16:41:28.544Z,15.10
2023-10-09T16:43:57.643Z,15.10
2023-10-09T16:46:27.196Z,15.10
2023-10-09T16:48:58.866Z,15.00
2023-10-09T16:51:27.920Z,14.76
2023-10-09T16:53:57.279Z,14.60
2023-10-09T16:56:25.461Z,14.60
2023-10-09T16:58:53.845Z,14.60
2023-10-09T17:01:28.756Z,14.54
2023-10-09T17:03:59.534Z,14.40
2023-10-09T17:06:30.482Z,14.40
2023-10-09T17:08:58.739Z,14.40
2023-10-09T17:11:28.921Z,14.40
2023-10-09T17:13:59.077Z,14.20
2023-10-09T17:16:30.324Z,14.24
2023-10-09T17:19:02.104Z,14.30
2023-10-09T17:21:37.391Z,14.40
2023-10-09T17:24:12.181Z,14.44
2023-10-09T17:26:42.477Z,14.40
2023-10-09T17:29:12.311Z,14.44
2023-10-09T17:31:43.639Z,14.40
2023-10-09T17:34:12.312Z,14.40
2023-10-09T17:36:40.503Z,14.38
2023-10-09T17:39:08.628Z,14.30
2023-10-09T17:41:37.095Z,14.18
2023-10-09T17:44:06.250Z,14.20
2023-10-09T17:46:34.449Z,14.10
2023-10-09T17:49:03.557Z,14.00
2023-10-09T17:51:32.837Z,13.90
2023-10-09T17:54:01.174Z,13.90
2023-10-09T17:56:31.458Z,13.80
2023-10-09T17:58:59.797Z,13.80
2023-10-09T18:01:30.839Z,13.80
2023-10-09T18:04:00.519Z,13.80
2023-10-09T18:06:28.917Z,13.80
2023-10-09T18:08:57.180Z,13.90
2023-10-09T18:11:25.643Z,13.90
2023-10-09T18:13:55.045Z,13.90
2023-10-09T18:16:23.860Z,13.90
2023-10-09T18:18:54.257Z,13.90
2023-10-09T18:21:22.406Z,13.90
2023-10-09T18:23:57.244Z,13.80
2023-10-09T18:26:28.653Z,13.80
2023-10-09T18:28:56.706Z,13.72
2023-10-09T18:31:24.956Z,13.80
2023-10-09T18:33:54.710Z,13.80
2023-10-09T18:36:23.316Z,13.80
2023-10-09T18:38:53.901Z,13.70
2023-10-09T18:41:23.883Z,13.70
2023-10-09T18:43:54.613Z,13.68
2023-10-09T18:46:24.018Z,13.60
2023-10-09T18:48:52.161Z,13.66
2023-10-09T18:51:20.365Z,13.70
2023-10-09T18:53:48.709Z,13.80
2023-10-09T18:56:21.857Z,13.90
2023-10-09T18:58:53.402Z,13.98
2023-10-09T19:01:21.877Z,13.98
2023-10-09T19:03:52.895Z,14.08
2023-10-09T19:06:25.158Z,14.00
2023-10-09T19:08:56.304Z,13.98
2023-10-09T19:11:25.144Z,13.90
2023-10-09T19:13:56.471Z,13.90
2023-10-09T19:16:25.039Z,13.80
2023-10-09T19:18:53.735Z,13.72
2023-10-09T19:21:23.832Z,13.70
2023-10-09T19:23:52.074Z,13.70
2023-10-09T19:26:20.110Z,13.64
2023-10-09T19:28:49.480Z,13.60
2023-10-09T19:31:17.628Z,13.50
2023-10-09T19:33:45.645Z,13.50
2023-10-09T19:36:20.049Z,13.50
2023-10-09T19:38:51.936Z,13.40
2023-10-09T19:41:22.810Z,13.40
2023-10-09T19:43:52.323Z,13.50
2023-10-09T19:46:21.273Z,13.50
2023-10-09T19:48:49.343Z,13.60
2023-10-09T19:51:19.117Z,13.60
2023-10-09T19:53:48.033Z,13.50
2023-10-09T19:56:19.901Z,13.28
2023-10-09T19:58:48.317Z,13.20
2023-10-09T20:01:17.126Z,13.28
2023-10-09T20:03:50.121Z,13.32
2023-10-09T20:06:18.696Z,13.30
2023-10-09T20:08:48.913Z,13.14
2023-10-09T20:11:17.359Z,13.18
2023-10-09T20:13:45.682Z,13.20
2023-10-09T20:16:13.994Z,13.10
2023-10-09T20:18:45.335Z,13.02
2023-10-09T20:21:13.685Z,13.10
2023-10-09T20:23:42.615Z,13.00
2023-10-09T20:26:18.095Z,12.90
2023-10-09T20:28:47.274Z,12.60
2023-10-09T20:31:16.331Z,12.82
2023-10-09T20:33:46.646Z,13.10
2023-10-09T20:36:31.203Z,13.04
2023-10-09T20:38:59.210Z,13.10
2023-10-09T20:41:29.738Z,13.20
2023-10-09T20:43:57.810Z,13.20
2023-10-09T20:46:25.940Z,13.20
2023-10-09T20:49:02.271Z,13.10
2023-10-09T20:51:32.517Z,13.00
2023-10-09T20:54:06.637Z,12.70
2023-10-09T20:56:37.873Z,12.60
2023-10-09T20:59:06.509Z,12.60
2023-10-09T21:01:34.592Z,12.56
2023-10-09T21:04:02.827Z,12.50
2023-10-09T21:06:30.946Z,12.48
2023-10-09T21:08:58.857Z,12.50
2023-10-09T21:11:27.035Z,12.60
2023-10-09T21:13:55.097Z,12.70
2023-10-09T21:16:23.186Z,12.76
2023-10-09T21:18:55.935Z,12.78
2023-10-09T21:21:24.960Z,12.80
2023-10-09T21:23:57.011Z,12.70
2023-10-09T21:26:25.203Z,12.68
2023-10-09T21:28:53.906Z,12.50
2023-10-09T21:31:23.820Z,12.20
2023-10-09T21:33:52.435Z,12.30
2023-10-09T21:36:22.490Z,12.20
2023-10-09T21:38:50.423Z,12.36
2023-10-09T21:41:19.334Z,12.20
2023-10-09T21:43:48.377Z,12.08
2023-10-09T21:46:16.876Z,12.10
2023-10-09T21:48:45.158Z,12.12
2023-10-09T21:51:17.636Z,12.10
2023-10-09T21:53:46.016Z,12.20
2023-10-09T21:56:15.885Z,12.30
2023-10-09T21:58:44.138Z,12.40
2023-10-09T22:01:13.825Z,12.50
2023-10-09T22:03:42.863Z,12.50
2023-10-09T22:06:12.127Z,12.42
2023-10-09T22:08:40.346Z,12.42
2023-10-09T22:11:09.083Z,12.42
2023-10-09T22:13:37.531Z,12.40
2023-10-09T22:16:06.410Z,12.40
2023-10-09T22:18:41.550Z,12.40
2023-10-09T22:21:12.711Z,12.40
2023-10-09T22:23:47.735Z,12.26
2023-10-09T22:26:16.462Z,12.30
2023-10-09T22:28:47.500Z,11.98
2023-10-09T22:31:21.905Z,11.60
2023-10-09T22:33:55.492Z,11.48
2023-10-09T22:36:31.304Z,11.50
2023-10-09T22:39:06.780Z,11.60
2023-10-09T22:41:36.011Z,11.70
2023-10-09T22:44:11.779Z,11.80
2023-10-09T22:46:40.166Z,11.80
2023-10-09T22:49:30.724Z,11.70
2023-10-09T22:51:58.861Z,11.70
2023-10-09T22:54:36.453Z,11.80
2023-10-09T22:57:07.003Z,11.70
2023-10-09T22:59:46.147Z,11.70
2023-10-09T23:02:22.827Z,11.50
2023-10-09T23:05:04.377Z,11.44
2023-10-09T23:07:33.744Z,11.44
2023-10-09T23:10:17.112Z,11.40
2023-10-09T23:12:49.264Z,11.50
2023-10-09T23:15:36.914Z,11.46
2023-10-09T23:18:30.967Z,11.40
2023-10-09T23:21:17.794Z,11.36
2023-10-09T23:23:46.099Z,11.40
2023-10-09T23:26:23.384Z,11.34
2023-10-09T23:28:54.969Z,11.28
2023-10-09T23:31:49.196Z,11.20
2023-10-09T23:34:21.288Z,11.10
2023-10-09T23:36:49.266Z,11.10
2023-10-09T23:39:37.287Z,11.00
2023-10-09T23:42:16.610Z,10.90
2023-10-09T23:44:45.338Z,10.70
2023-10-09T23:47:18.424Z,10.80
2023-10-09T23:49:49.365Z,10.70
2023-10-09T23:52:17.444Z,10.66
2023-10-09T23:54:48.894Z,10.60
2023-10-09T23:57:21.155Z,10.60
2023-10-09T23:59:54.809Z,10.60
